ěÝzenÝ letovÚho provozu ╚eskÚ republiky
Letiste: LKPD Aktualizace: 27.11.2021 22:27:28  UTC
 METAR LKPD 27.11. 22:30 ...
METAR LKPD 272230Z 08005KT 9999 SCT045 BKN120 01/M01 Q0997 RMK BLACK=
 TAF LKPD 27.11. 05:00 ...
TAF LKPD 270500Z 2706/2806 11004KT CAVOK      BECMG 2713/2715 BKN020=